createdAt,value
2022-12-27T00:00:26.917Z,1016.01
2022-12-27T00:01:26.925Z,1016.00
2022-12-27T00:02:26.855Z,1015.99
2022-12-27T00:03:26.858Z,1015.99
2022-12-27T00:04:26.838Z,1016.02
2022-12-27T00:05:26.853Z,1016.00
2022-12-27T00:06:26.818Z,1016.00
2022-12-27T00:07:26.846Z,1016.03
2022-12-27T00:08:26.790Z,1016.01
2022-12-27T00:09:26.782Z,1016.03
2022-12-27T00:10:26.795Z,1016.06
2022-12-27T00:11:26.782Z,1016.03
2022-12-27T00:12:26.778Z,1016.06
2022-12-27T00:13:26.750Z,1016.04
2022-12-27T00:14:26.741Z,1016.01
2022-12-27T00:15:26.726Z,1016.00
2022-12-27T00:16:26.759Z,1016.00
2022-12-27T00:17:26.706Z,1016.06
2022-12-27T00:18:26.701Z,1016.04
2022-12-27T00:19:26.674Z,1016.11
2022-12-27T00:20:26.683Z,1016.05
2022-12-27T00:21:26.660Z,1016.03
2022-12-27T00:22:26.663Z,1016.07
2022-12-27T00:23:26.654Z,1016.05
2022-12-27T00:24:26.641Z,1016.02
2022-12-27T00:25:26.629Z,1016.03
2022-12-27T00:26:26.625Z,1015.98
2022-12-27T00:27:26.611Z,1016.00
2022-12-27T00:28:26.612Z,1016.02
2022-12-27T00:29:26.584Z,1015.98
2022-12-27T00:30:26.572Z,1015.99
2022-12-27T00:31:26.592Z,1016.00
2022-12-27T00:32:26.551Z,1015.96
2022-12-27T00:33:26.546Z,1015.98
2022-12-27T00:34:26.536Z,1015.99
2022-12-27T00:35:26.527Z,1015.99
2022-12-27T00:36:26.509Z,1015.99
2022-12-27T00:37:26.508Z,1016.02
2022-12-27T00:38:26.509Z,1016.02
2022-12-27T00:39:26.490Z,1016.06
2022-12-27T00:40:26.477Z,1016.05
2022-12-27T00:41:26.469Z,1016.01
2022-12-27T00:42:26.452Z,1016.06
2022-12-27T00:43:26.449Z,1016.06
2022-12-27T00:44:26.438Z,1016.12
2022-12-27T00:45:26.450Z,1016.10
2022-12-27T00:46:26.423Z,1016.11
2022-12-27T00:47:26.411Z,1016.12
2022-12-27T00:48:26.402Z,1016.14
2022-12-27T00:49:26.384Z,1016.17
2022-12-27T00:50:26.372Z,1016.19
2022-12-27T00:51:26.361Z,1016.25
2022-12-27T00:52:26.399Z,1016.26
2022-12-27T00:53:26.848Z,1016.21
2022-12-27T00:54:26.336Z,1016.29
2022-12-27T00:55:26.325Z,1016.28
2022-12-27T00:56:26.320Z,1016.30
2022-12-27T00:57:26.311Z,1016.29
2022-12-27T00:58:26.301Z,1016.32
2022-12-27T00:59:26.282Z,1016.35
2022-12-27T01:00:26.270Z,1016.31
2022-12-27T01:01:26.333Z,1016.36
2022-12-27T01:02:26.323Z,1016.36
2022-12-27T01:03:26.305Z,1016.32
2022-12-27T01:04:26.238Z,1016.34
2022-12-27T01:05:26.226Z,1016.30
2022-12-27T01:06:26.224Z,1016.33
2022-12-27T01:07:26.195Z,1016.34
2022-12-27T01:08:26.184Z,1016.32
2022-12-27T01:09:26.177Z,1016.32
2022-12-27T01:10:26.168Z,1016.35
2022-12-27T01:11:26.163Z,1016.30
2022-12-27T01:12:26.142Z,1016.31
2022-12-27T01:13:26.197Z,1016.27
2022-12-27T01:14:26.134Z,1016.26
2022-12-27T01:15:26.121Z,1016.23
2022-12-27T01:16:26.128Z,1016.23
2022-12-27T01:17:26.100Z,1016.28
2022-12-27T01:18:26.085Z,1016.21
2022-12-27T01:19:26.119Z,1016.27
2022-12-27T01:20:26.063Z,1016.20
2022-12-27T01:21:26.066Z,1016.19
2022-12-27T01:22:26.050Z,1016.22
2022-12-27T01:23:26.040Z,1016.21
2022-12-27T01:24:26.039Z,1016.22
2022-12-27T01:25:26.019Z,1016.20
2022-12-27T01:26:26.014Z,1016.24
2022-12-27T01:27:25.994Z,1016.20
2022-12-27T01:28:25.985Z,1016.18
2022-12-27T01:29:25.971Z,1016.20
2022-12-27T01:30:25.980Z,1016.23
2022-12-27T01:31:25.982Z,1016.22
2022-12-27T01:32:25.943Z,1016.23
2022-12-27T01:33:25.933Z,1016.18
2022-12-27T01:34:25.912Z,1016.23
2022-12-27T01:35:25.913Z,1016.20
2022-12-27T01:36:25.902Z,1016.21
2022-12-27T01:37:25.891Z,1016.22
2022-12-27T01:38:25.894Z,1016.23
2022-12-27T01:39:25.867Z,1016.34
2022-12-27T01:40:25.859Z,1016.25
2022-12-27T01:41:25.844Z,1016.26
2022-12-27T01:42:25.837Z,1016.28
2022-12-27T01:43:25.828Z,1016.31
2022-12-27T01:44:25.821Z,1016.31
2022-12-27T01:45:25.881Z,1016.27
2022-12-27T01:46:25.800Z,1016.32
2022-12-27T01:47:25.792Z,1016.32
2022-12-27T01:48:25.776Z,1016.33
2022-12-27T01:49:25.769Z,1016.31
2022-12-27T01:50:25.763Z,1016.37
2022-12-27T01:51:25.745Z,1016.33
2022-12-27T01:52:25.734Z,1016.39
2022-12-27T01:53:25.733Z,1016.42
2022-12-27T01:54:25.716Z,1016.40
2022-12-27T01:55:25.704Z,1016.39
2022-12-27T01:56:25.693Z,1016.40
2022-12-27T01:57:25.684Z,1016.43
2022-12-27T01:58:25.690Z,1016.45
2022-12-27T01:59:25.669Z,1016.46
2022-12-27T02:00:25.659Z,1016.44
2022-12-27T02:01:25.697Z,1016.47
2022-12-27T02:02:25.769Z,1016.43
2022-12-27T02:03:25.621Z,1016.43
2022-12-27T02:04:25.613Z,1016.43
2022-12-27T02:05:25.603Z,1016.44
2022-12-27T02:06:25.601Z,1016.42
2022-12-27T02:07:25.583Z,1016.46
2022-12-27T02:08:25.569Z,1016.40
2022-12-27T02:09:25.569Z,1016.43
2022-12-27T02:10:25.559Z,1016.41
2022-12-27T02:11:25.540Z,1016.45
2022-12-27T02:12:25.537Z,1016.47
2022-12-27T02:13:25.527Z,1016.46
2022-12-27T02:14:28.060Z,1016.46
2022-12-27T02:15:25.509Z,1016.53
2022-12-27T02:16:25.527Z,1016.51
2022-12-27T02:17:25.500Z,1016.58
2022-12-27T02:18:25.474Z,1016.56
2022-12-27T02:19:25.463Z,1016.63
2022-12-27T02:20:25.448Z,1016.58
2022-12-27T02:21:25.442Z,1016.61
2022-12-27T02:22:25.427Z,1016.64
2022-12-27T02:23:25.417Z,1016.63
2022-12-27T02:24:25.405Z,1016.65
2022-12-27T02:25:25.397Z,1016.69
2022-12-27T02:26:25.387Z,1016.68
2022-12-27T02:27:25.380Z,1016.61
2022-12-27T02:28:25.362Z,1016.61
2022-12-27T02:29:25.369Z,1016.62
2022-12-27T02:30:25.355Z,1016.60
2022-12-27T02:31:25.339Z,1016.58
2022-12-27T02:32:25.329Z,1016.58
2022-12-27T02:33:25.313Z,1016.62
2022-12-27T02:34:25.308Z,1016.61
2022-12-27T02:35:25.301Z,1016.63
2022-12-27T02:36:25.284Z,1016.65
2022-12-27T02:37:25.285Z,1016.67
2022-12-27T02:38:25.264Z,1016.60
2022-12-27T02:39:25.259Z,1016.63
2022-12-27T02:40:25.243Z,1016.66
2022-12-27T02:41:25.247Z,1016.64
2022-12-27T02:42:25.228Z,1016.64
2022-12-27T02:43:25.215Z,1016.64
2022-12-27T02:44:25.206Z,1016.68
2022-12-27T02:45:25.190Z,1016.69
2022-12-27T02:46:25.265Z,1016.72
2022-12-27T02:47:25.168Z,1016.75
2022-12-27T02:48:25.167Z,1016.75
2022-12-27T02:49:25.158Z,1016.74
2022-12-27T02:50:25.150Z,1016.69
2022-12-27T02:51:25.134Z,1016.69
2022-12-27T02:52:25.123Z,1016.63
2022-12-27T02:53:25.113Z,1016.66
2022-12-27T02:54:25.106Z,1016.66
2022-12-27T02:55:25.098Z,1016.63
2022-12-27T02:56:25.103Z,1016.70
2022-12-27T02:57:25.075Z,1016.60
2022-12-27T02:58:25.059Z,1016.66
2022-12-27T02:59:25.067Z,1016.68
2022-12-27T03:00:25.049Z,1016.66
2022-12-27T03:01:25.225Z,1016.65
2022-12-27T03:02:25.165Z,1016.64
2022-12-27T03:03:25.042Z,1016.71
2022-12-27T03:04:25.003Z,1016.70
2022-12-27T03:05:25.000Z,1016.70
2022-12-27T03:06:24.986Z,1016.68
2022-12-27T03:07:24.970Z,1016.70
2022-12-27T03:08:24.954Z,1016.76
2022-12-27T03:09:24.951Z,1016.74
2022-12-27T03:10:24.942Z,1016.78
2022-12-27T03:11:24.928Z,1016.78
2022-12-27T03:12:24.919Z,1016.78
2022-12-27T03:13:24.913Z,1016.77
2022-12-27T03:14:24.900Z,1016.80
2022-12-27T03:15:29.016Z,1016.84
2022-12-27T03:16:24.929Z,1016.87
2022-12-27T03:17:24.871Z,1016.80
2022-12-27T03:18:24.856Z,1016.87
2022-12-27T03:19:24.857Z,1016.84
2022-12-27T03:20:24.839Z,1016.88
2022-12-27T03:21:24.837Z,1016.87
2022-12-27T03:22:24.808Z,1016.89
2022-12-27T03:23:24.806Z,1016.86
2022-12-27T03:24:24.812Z,1016.88
2022-12-27T03:25:24.785Z,1016.88
2022-12-27T03:26:24.780Z,1016.88
2022-12-27T03:27:24.763Z,1016.86
2022-12-27T03:28:24.752Z,1016.90
2022-12-27T03:29:24.751Z,1016.89
2022-12-27T03:30:24.737Z,1016.88
2022-12-27T03:31:24.721Z,1016.90
2022-12-27T03:32:24.727Z,1016.89
2022-12-27T03:33:24.707Z,1016.90
2022-12-27T03:34:24.704Z,1016.94
2022-12-27T03:35:24.687Z,1016.96
2022-12-27T03:36:24.672Z,1016.94
2022-12-27T03:37:24.663Z,1016.90
2022-12-27T03:38:24.648Z,1016.95
2022-12-27T03:39:24.645Z,1016.95
2022-12-27T03:40:24.648Z,1016.98
2022-12-27T03:41:24.619Z,1016.97
2022-12-27T03:42:24.614Z,1016.98
2022-12-27T03:43:24.602Z,1016.96
2022-12-27T03:44:24.813Z,1016.96
2022-12-27T03:45:24.578Z,1016.93
2022-12-27T03:46:24.598Z,1016.92
2022-12-27T03:47:24.574Z,1016.97
2022-12-27T03:48:24.550Z,1016.94
2022-12-27T03:49:24.540Z,1016.92
2022-12-27T03:50:24.520Z,1016.95
2022-12-27T03:51:24.563Z,1016.96
2022-12-27T03:52:24.512Z,1016.92
2022-12-27T03:53:24.500Z,1016.94
2022-12-27T03:54:24.490Z,1016.93
2022-12-27T03:55:28.456Z,1016.93
2022-12-27T03:56:24.472Z,1016.98
2022-12-27T03:57:24.464Z,1016.96
2022-12-27T03:58:24.458Z,1017.02
2022-12-27T03:59:24.445Z,1017.03
2022-12-27T04:00:24.436Z,1017.04
2022-12-27T04:01:24.533Z,1017.04
2022-12-27T04:02:24.704Z,1017.09
2022-12-27T04:03:24.466Z,1017.08
2022-12-27T04:04:24.381Z,1017.10
2022-12-27T04:05:24.371Z,1017.12
2022-12-27T04:06:24.371Z,1017.13
2022-12-27T04:07:24.356Z,1017.10
2022-12-27T04:08:24.342Z,1017.14
2022-12-27T04:09:24.345Z,1017.13
2022-12-27T04:10:24.328Z,1017.21
2022-12-27T04:11:24.319Z,1017.19
2022-12-27T04:12:24.312Z,1017.18
2022-12-27T04:13:24.295Z,1017.20
2022-12-27T04:14:24.286Z,1017.18
2022-12-27T04:15:24.273Z,1017.14
2022-12-27T04:16:24.320Z,1017.22
2022-12-27T04:17:24.252Z,1017.17
2022-12-27T04:18:24.244Z,1017.23
2022-12-27T04:19:24.249Z,1017.18
2022-12-27T04:20:24.222Z,1017.21
2022-12-27T04:21:24.222Z,1017.17
2022-12-27T04:22:24.199Z,1017.21
2022-12-27T04:23:24.202Z,1017.20
2022-12-27T04:24:24.187Z,1017.14
2022-12-27T04:25:24.182Z,1017.14
2022-12-27T04:26:24.167Z,1017.13
2022-12-27T04:27:24.152Z,1017.16
2022-12-27T04:28:24.141Z,1017.15
2022-12-27T04:29:24.135Z,1017.13
2022-12-27T04:30:24.120Z,1017.10
2022-12-27T04:31:24.123Z,1017.07
2022-12-27T04:32:24.098Z,1017.08
2022-12-27T04:33:24.106Z,1017.00
2022-12-27T04:34:24.080Z,1017.01
2022-12-27T04:35:24.067Z,1017.01
2022-12-27T04:36:24.057Z,1017.00
2022-12-27T04:37:24.050Z,1016.95
2022-12-27T04:38:24.047Z,1017.01
2022-12-27T04:39:24.030Z,1017.02
2022-12-27T04:40:24.016Z,1017.02
2022-12-27T04:41:24.015Z,1017.00
2022-12-27T04:42:23.999Z,1017.02
2022-12-27T04:43:23.996Z,1017.01
2022-12-27T04:44:23.979Z,1017.03
2022-12-27T04:45:23.967Z,1017.01
2022-12-27T04:46:24.023Z,1016.97
2022-12-27T04:47:23.957Z,1016.96
2022-12-27T04:48:23.942Z,1017.01
2022-12-27T04:49:23.928Z,1016.96
2022-12-27T04:50:23.924Z,1016.98
2022-12-27T04:51:23.907Z,1016.97
2022-12-27T04:52:23.900Z,1017.01
2022-12-27T04:53:23.891Z,1017.01
2022-12-27T04:54:23.864Z,1016.99
2022-12-27T04:55:23.863Z,1017.03
2022-12-27T04:56:23.854Z,1017.10
2022-12-27T04:57:23.838Z,1017.09
2022-12-27T04:58:23.834Z,1017.06
2022-12-27T04:59:23.820Z,1017.07
2022-12-27T05:00:23.805Z,1017.09
2022-12-27T05:01:23.962Z,1017.07
2022-12-27T05:02:23.968Z,1017.05
2022-12-27T05:03:23.821Z,1017.10
2022-12-27T05:04:23.764Z,1017.11
2022-12-27T05:05:23.763Z,1017.09
2022-12-27T05:06:23.756Z,1017.11
2022-12-27T05:07:23.740Z,1017.14
2022-12-27T05:08:23.739Z,1017.11
2022-12-27T05:09:23.724Z,1017.12
2022-12-27T05:10:23.722Z,1017.07
2022-12-27T05:11:23.703Z,1017.09
2022-12-27T05:12:23.681Z,1017.06
2022-12-27T05:13:23.672Z,1017.04
2022-12-27T05:14:23.662Z,1017.04
2022-12-27T05:15:23.659Z,1017.02
2022-12-27T05:16:23.684Z,1017.02
2022-12-27T05:17:23.632Z,1017.04
2022-12-27T05:18:23.616Z,1017.06
2022-12-27T05:19:23.614Z,1017.08
2022-12-27T05:20:23.613Z,1017.04
2022-12-27T05:21:23.592Z,1017.10
2022-12-27T05:22:23.590Z,1017.06
2022-12-27T05:23:23.576Z,1017.08
2022-12-27T05:24:23.567Z,1017.12
2022-12-27T05:25:23.611Z,1017.13
2022-12-27T05:26:23.555Z,1017.13
2022-12-27T05:27:23.540Z,1017.11
2022-12-27T05:28:23.526Z,1017.16
2022-12-27T05:29:23.519Z,1017.14
2022-12-27T05:30:23.503Z,1017.15
2022-12-27T05:31:23.538Z,1017.15
2022-12-27T05:32:23.491Z,1017.16
2022-12-27T05:33:23.470Z,1017.16
2022-12-27T05:34:23.454Z,1017.18
2022-12-27T05:35:23.460Z,1017.21
2022-12-27T05:36:23.444Z,1017.23
2022-12-27T05:37:23.431Z,1017.21
2022-12-27T05:38:23.421Z,1017.21
2022-12-27T05:39:23.410Z,1017.20
2022-12-27T05:40:23.401Z,1017.21
2022-12-27T05:41:23.391Z,1017.23
2022-12-27T05:42:23.382Z,1017.20
2022-12-27T05:43:23.370Z,1017.16
2022-12-27T05:44:23.355Z,1017.20
2022-12-27T05:45:23.358Z,1017.21
2022-12-27T05:46:23.372Z,1017.21
2022-12-27T05:47:23.329Z,1017.19
2022-12-27T05:48:23.311Z,1017.19
2022-12-27T05:49:23.335Z,1017.22
2022-12-27T05:50:23.307Z,1017.24
2022-12-27T05:51:23.283Z,1017.23
2022-12-27T05:52:23.273Z,1017.27
2022-12-27T05:53:23.269Z,1017.28
2022-12-27T05:54:23.257Z,1017.27
2022-12-27T05:55:23.253Z,1017.25
2022-12-27T05:56:23.241Z,1017.27
2022-12-27T05:57:23.218Z,1017.30
2022-12-27T05:58:23.212Z,1017.31
2022-12-27T05:59:23.198Z,1017.30
2022-12-27T06:00:23.203Z,1017.31
2022-12-27T06:01:23.250Z,1017.32
2022-12-27T06:02:23.298Z,1017.35
2022-12-27T06:03:23.222Z,1017.33
2022-12-27T06:04:23.150Z,1017.37
2022-12-27T06:05:23.149Z,1017.38
2022-12-27T06:06:23.130Z,1017.36
2022-12-27T06:07:23.121Z,1017.38
2022-12-27T06:08:23.115Z,1017.44
2022-12-27T06:09:23.099Z,1017.36
2022-12-27T06:10:23.089Z,1017.41
2022-12-27T06:11:23.087Z,1017.43
2022-12-27T06:12:23.071Z,1017.41
2022-12-27T06:13:23.101Z,1017.40
2022-12-27T06:14:23.053Z,1017.49
2022-12-27T06:15:23.038Z,1017.41
2022-12-27T06:16:23.110Z,1017.46
2022-12-27T06:17:23.019Z,1017.46
2022-12-27T06:18:23.010Z,1017.44
2022-12-27T06:19:22.998Z,1017.42
2022-12-27T06:20:22.995Z,1017.48
2022-12-27T06:21:22.979Z,1017.46
2022-12-27T06:22:22.987Z,1017.50
2022-12-27T06:23:22.960Z,1017.50
2022-12-27T06:24:22.954Z,1017.54
2022-12-27T06:25:22.940Z,1017.50
2022-12-27T06:26:22.939Z,1017.52
2022-12-27T06:27:22.916Z,1017.53
2022-12-27T06:28:22.904Z,1017.53
2022-12-27T06:29:22.897Z,1017.54
2022-12-27T06:30:22.889Z,1017.57
2022-12-27T06:31:22.954Z,1017.55
2022-12-27T06:32:22.872Z,1017.58
2022-12-27T06:33:22.867Z,1017.61
2022-12-27T06:34:22.850Z,1017.65
2022-12-27T06:35:22.835Z,1017.62
2022-12-27T06:36:22.828Z,1017.67
2022-12-27T06:37:22.820Z,1017.74
2022-12-27T06:38:22.822Z,1017.72
2022-12-27T06:39:22.794Z,1017.69
2022-12-27T06:40:22.810Z,1017.68
2022-12-27T06:41:22.791Z,1017.74
2022-12-27T06:42:22.760Z,1017.72
2022-12-27T06:43:22.745Z,1017.76
2022-12-27T06:44:22.756Z,1017.73
2022-12-27T06:45:22.735Z,1017.76
2022-12-27T06:46:22.763Z,1017.76
2022-12-27T06:47:22.716Z,1017.77
2022-12-27T06:48:22.709Z,1017.82
2022-12-27T06:49:22.699Z,1017.84
2022-12-27T06:50:22.683Z,1017.84
2022-12-27T06:51:22.682Z,1017.84
2022-12-27T06:52:22.671Z,1017.85
2022-12-27T06:53:22.661Z,1017.80
2022-12-27T06:54:22.647Z,1017.84
2022-12-27T06:55:22.633Z,1017.87
2022-12-27T06:56:22.625Z,1017.90
2022-12-27T06:57:22.613Z,1017.89
2022-12-27T06:58:22.603Z,1017.90
2022-12-27T06:59:22.591Z,1017.89
2022-12-27T07:00:22.603Z,1017.89
2022-12-27T07:01:22.696Z,1017.90
2022-12-27T07:02:22.658Z,1017.87
2022-12-27T07:03:22.601Z,1017.91
2022-12-27T07:04:22.547Z,1017.94
2022-12-27T07:05:22.533Z,1017.94
2022-12-27T07:06:22.524Z,1017.92
2022-12-27T07:07:22.519Z,1017.95
2022-12-27T07:08:22.504Z,1018.00
2022-12-27T07:09:22.493Z,1018.02
2022-12-27T07:10:22.484Z,1018.03
2022-12-27T07:11:22.470Z,1018.04
2022-12-27T07:12:22.459Z,1018.04
2022-12-27T07:13:22.447Z,1018.00
2022-12-27T07:14:22.440Z,1018.03
2022-12-27T07:15:22.441Z,1018.01
2022-12-27T07:16:22.512Z,1018.04
2022-12-27T07:17:22.409Z,1018.03
2022-12-27T07:18:22.405Z,1018.03
2022-12-27T07:19:22.388Z,1018.05
2022-12-27T07:20:22.385Z,1018.07
2022-12-27T07:21:22.395Z,1018.12
2022-12-27T07:22:22.364Z,1018.10
2022-12-27T07:23:22.351Z,1018.13
2022-12-27T07:24:22.339Z,1018.14
2022-12-27T07:25:22.338Z,1018.16
2022-12-27T07:26:22.324Z,1018.16
2022-12-27T07:27:22.313Z,1018.15
2022-12-27T07:28:22.298Z,1018.17
2022-12-27T07:29:22.283Z,1018.21
2022-12-27T07:30:22.277Z,1018.22
2022-12-27T07:31:22.317Z,1018.26
2022-12-27T07:32:22.264Z,1018.32
2022-12-27T07:33:22.252Z,1018.36
2022-12-27T07:34:22.237Z,1018.35
2022-12-27T07:35:22.229Z,1018.35
2022-12-27T07:36:22.219Z,1018.37
2022-12-27T07:37:22.202Z,1018.39
2022-12-27T07:38:22.198Z,1018.39
2022-12-27T07:39:22.184Z,1018.42
2022-12-27T07:40:22.172Z,1018.38
2022-12-27T07:41:22.166Z,1018.38
2022-12-27T07:42:22.150Z,1018.37
2022-12-27T07:43:22.150Z,1018.43
2022-12-27T07:44:22.139Z,1018.38
2022-12-27T07:45:22.120Z,1018.37
2022-12-27T07:46:22.118Z,1018.38
2022-12-27T07:47:22.103Z,1018.39
2022-12-27T07:48:22.102Z,1018.37
2022-12-27T07:49:22.142Z,1018.41
2022-12-27T07:50:22.083Z,1018.42
2022-12-27T07:51:22.060Z,1018.35
2022-12-27T07:52:22.067Z,1018.40
2022-12-27T07:53:22.055Z,1018.40
2022-12-27T07:54:22.038Z,1018.44
2022-12-27T07:55:22.024Z,1018.47
2022-12-27T07:56:25.857Z,1018.47
2022-12-27T07:57:22.004Z,1018.47
2022-12-27T07:58:22.000Z,1018.50
2022-12-27T07:59:21.984Z,1018.51
2022-12-27T08:00:21.975Z,1018.49
2022-12-27T08:01:22.116Z,1018.53
2022-12-27T08:02:22.041Z,1018.56
2022-12-27T08:03:21.957Z,1018.57
2022-12-27T08:04:21.941Z,1018.57
2022-12-27T08:05:27.400Z,1018.57
2022-12-27T08:06:21.909Z,1018.53
2022-12-27T08:07:21.902Z,1018.53
2022-12-27T08:08:21.885Z,1018.46
2022-12-27T08:09:21.874Z,1018.49
2022-12-27T08:10:21.885Z,1018.49
2022-12-27T08:11:21.873Z,1018.49
2022-12-27T08:12:21.849Z,1018.47
2022-12-27T08:13:21.841Z,1018.50
2022-12-27T08:14:21.833Z,1018.51
2022-12-27T08:15:21.818Z,1018.53
2022-12-27T08:16:21.835Z,1018.56
2022-12-27T08:17:21.807Z,1018.55
2022-12-27T08:18:21.784Z,1018.48
2022-12-27T08:19:21.782Z,1018.54
2022-12-27T08:20:21.775Z,1018.56
2022-12-27T08:21:21.793Z,1018.54
2022-12-27T08:22:21.750Z,1018.52
2022-12-27T08:23:21.765Z,1018.52
2022-12-27T08:24:21.733Z,1018.50
2022-12-27T08:25:21.720Z,1018.54
2022-12-27T08:26:21.720Z,1018.58
2022-12-27T08:27:21.693Z,1018.57
2022-12-27T08:28:21.695Z,1018.56
2022-12-27T08:29:21.680Z,1018.52
2022-12-27T08:30:21.675Z,1018.53
2022-12-27T08:31:21.712Z,1018.55
2022-12-27T08:32:21.650Z,1018.54
2022-12-27T08:33:21.644Z,1018.57
2022-12-27T08:34:21.633Z,1018.60
2022-12-27T08:35:52.632Z,1018.61
2022-12-27T08:36:53.290Z,1018.63
2022-12-27T08:37:21.607Z,1018.67
2022-12-27T08:38:21.601Z,1018.65
2022-12-27T08:39:21.581Z,1018.66
2022-12-27T08:40:21.576Z,1018.65
2022-12-27T08:41:21.559Z,1018.67
2022-12-27T08:42:21.567Z,1018.65
2022-12-27T08:43:21.539Z,1018.67
2022-12-27T08:44:21.559Z,1018.64
2022-12-27T08:45:21.511Z,1018.68
2022-12-27T08:46:21.573Z,1018.67
2022-12-27T08:47:21.506Z,1018.69
2022-12-27T08:48:21.540Z,1018.68
2022-12-27T08:49:21.493Z,1018.68
2022-12-27T08:50:21.463Z,1018.69
2022-12-27T08:51:31.645Z,1018.67
2022-12-27T08:52:21.454Z,1018.69
2022-12-27T08:53:21.443Z,1018.71
2022-12-27T08:54:21.436Z,1018.72
2022-12-27T08:55:21.426Z,1018.70
2022-12-27T08:56:21.413Z,1018.71
2022-12-27T08:57:21.404Z,1018.73
2022-12-27T08:58:21.401Z,1018.71
2022-12-27T08:59:21.391Z,1018.72
2022-12-27T09:00:21.378Z,1018.69
2022-12-27T09:01:21.532Z,1018.71
2022-12-27T09:02:21.438Z,1018.75
2022-12-27T09:03:21.400Z,1018.75
2022-12-27T09:04:21.343Z,1018.81
2022-12-27T09:05:21.328Z,1018.83
2022-12-27T09:06:21.319Z,1018.82
2022-12-27T09:07:21.311Z,1018.85
2022-12-27T09:08:21.300Z,1018.82
2022-12-27T09:09:21.296Z,1018.84
2022-12-27T09:10:21.279Z,1018.84
2022-12-27T09:11:21.272Z,1018.83
2022-12-27T09:12:21.259Z,1018.84
2022-12-27T09:13:21.243Z,1018.89
2022-12-27T09:14:21.243Z,1018.88
2022-12-27T09:15:21.236Z,1018.81
2022-12-27T09:16:21.351Z,1018.83
2022-12-27T09:17:21.233Z,1018.83
2022-12-27T09:18:21.208Z,1018.85
2022-12-27T09:19:21.225Z,1018.89
2022-12-27T09:20:21.185Z,1018.87
2022-12-27T09:21:21.177Z,1018.92
2022-12-27T09:22:31.870Z,1018.91
2022-12-27T09:23:21.164Z,1018.92
2022-12-27T09:24:21.152Z,1018.92
2022-12-27T09:25:21.197Z,1018.90
2022-12-27T09:26:21.147Z,1018.94
2022-12-27T09:27:21.131Z,1018.91
2022-12-27T09:28:21.118Z,1018.88
2022-12-27T09:29:21.105Z,1018.94
2022-12-27T09:30:21.106Z,1018.89
2022-12-27T09:31:21.154Z,1018.94
2022-12-27T09:32:21.089Z,1018.98
2022-12-27T09:33:21.116Z,1018.93
2022-12-27T09:34:21.072Z,1018.98
2022-12-27T09:35:21.072Z,1018.97
2022-12-27T09:36:21.064Z,1018.96
2022-12-27T09:37:21.048Z,1018.98
2022-12-27T09:38:21.045Z,1018.94
2022-12-27T09:39:21.025Z,1019.00
2022-12-27T09:40:21.016Z,1019.01
2022-12-27T09:42:11.831Z,1019.01
2022-12-27T09:43:25.463Z,1019.01
2022-12-27T09:44:20.990Z,1019.01
2022-12-27T09:45:20.994Z,1019.00
2022-12-27T09:46:21.011Z,1018.95
2022-12-27T09:47:20.955Z,1018.96
2022-12-27T09:48:20.956Z,1018.99
2022-12-27T09:49:20.941Z,1018.94
2022-12-27T09:50:20.941Z,1018.95
2022-12-27T09:51:20.925Z,1018.98
2022-12-27T09:52:20.919Z,1018.98
2022-12-27T09:53:20.938Z,1019.06
2022-12-27T09:54:20.892Z,1019.10
2022-12-27T09:55:20.897Z,1019.04
2022-12-27T09:56:20.883Z,1019.03
2022-12-27T09:57:20.976Z,1019.05
2022-12-27T09:58:20.886Z,1019.00
2022-12-27T09:59:20.877Z,1019.04
2022-12-27T10:00:34.437Z,1019.00
2022-12-27T10:01:20.953Z,1019.00
2022-12-27T10:02:20.960Z,1019.00
2022-12-27T10:03:20.831Z,1019.04
2022-12-27T10:04:20.879Z,1019.03
2022-12-27T10:05:22.266Z,1019.05
2022-12-27T10:06:20.800Z,1019.05
2022-12-27T10:07:20.797Z,1019.00
2022-12-27T10:08:20.796Z,1018.99
2022-12-27T10:09:20.787Z,1019.02
2022-12-27T10:10:20.856Z,1019.13
2022-12-27T10:11:20.775Z,1019.22
2022-12-27T10:12:20.763Z,1019.10
2022-12-27T10:13:20.752Z,1019.14
2022-12-27T10:14:20.767Z,1019.14
2022-12-27T10:15:20.740Z,1019.12
2022-12-27T10:16:20.793Z,1019.11
2022-12-27T10:17:20.741Z,1019.06
2022-12-27T10:18:20.740Z,1019.07
2022-12-27T10:19:20.720Z,1019.05
2022-12-27T10:20:20.722Z,1019.11
2022-12-27T10:21:20.709Z,1019.12
2022-12-27T10:22:20.706Z,1019.14
2022-12-27T10:23:20.708Z,1019.06
2022-12-27T10:24:20.682Z,1019.07
2022-12-27T10:25:20.699Z,1019.02
2022-12-27T10:26:20.679Z,1019.03
2022-12-27T10:27:20.681Z,1018.97
2022-12-27T10:28:20.670Z,1018.92
2022-12-27T10:29:20.670Z,1018.94
2022-12-27T10:30:20.658Z,1018.95
2022-12-27T10:31:20.704Z,1018.90
2022-12-27T10:32:20.643Z,1018.97
2022-12-27T10:33:20.671Z,1018.98
2022-12-27T10:34:20.645Z,1018.99
2022-12-27T10:35:20.634Z,1019.06
2022-12-27T10:36:20.635Z,1019.00
2022-12-27T10:37:20.635Z,1019.00
2022-12-27T10:38:20.635Z,1018.95
2022-12-27T10:39:20.634Z,1018.98
2022-12-27T10:40:20.621Z,1018.97
2022-12-27T10:41:20.609Z,1018.95
2022-12-27T10:42:20.616Z,1018.94
2022-12-27T10:43:20.617Z,1018.93
2022-12-27T10:44:20.646Z,1018.94
2022-12-27T10:45:20.606Z,1018.87
2022-12-27T10:46:20.616Z,1018.92
2022-12-27T10:47:20.594Z,1018.95
2022-12-27T10:48:20.609Z,1018.97
2022-12-27T10:49:21.540Z,1019.01
2022-12-27T10:50:20.591Z,1019.05
2022-12-27T10:51:20.586Z,1019.05
2022-12-27T10:52:20.587Z,1019.07
2022-12-27T10:53:20.571Z,1019.10
2022-12-27T10:54:20.586Z,1019.07
2022-12-27T10:55:20.580Z,1019.08
2022-12-27T10:56:20.566Z,1019.10
2022-12-27T10:57:20.563Z,1019.08
2022-12-27T10:58:20.569Z,1019.11
2022-12-27T10:59:20.558Z,1019.07
2022-12-27T11:00:20.602Z,1019.19
2022-12-27T11:01:41.669Z,1019.17
2022-12-27T11:02:20.641Z,1019.09
2022-12-27T11:03:20.555Z,1019.00
2022-12-27T11:04:21.555Z,1018.99
2022-12-27T11:05:20.543Z,1018.98
2022-12-27T11:06:20.569Z,1018.93
2022-12-27T11:07:20.556Z,1018.93
2022-12-27T11:08:20.551Z,1018.90
2022-12-27T11:09:20.528Z,1018.88
2022-12-27T11:10:20.562Z,1018.93
2022-12-27T11:11:20.517Z,1018.92
2022-12-27T11:12:20.554Z,1018.96
2022-12-27T11:13:20.556Z,1019.00
2022-12-27T11:14:20.516Z,1019.07
2022-12-27T11:15:20.521Z,1019.10
2022-12-27T11:16:20.546Z,1019.11
2022-12-27T11:17:20.588Z,1019.13
2022-12-27T11:18:20.505Z,1019.15
2022-12-27T11:19:20.492Z,1019.18
2022-12-27T11:20:20.540Z,1019.17
2022-12-27T11:21:27.567Z,1019.18
2022-12-27T11:22:20.496Z,1019.24
2022-12-27T11:23:20.497Z,1019.21
2022-12-27T11:24:20.524Z,1019.19
2022-12-27T11:25:20.543Z,1019.17
2022-12-27T11:26:20.504Z,1019.14
2022-12-27T11:27:20.474Z,1019.12
2022-12-27T11:28:20.469Z,1019.17
2022-12-27T11:29:20.502Z,1019.15
2022-12-27T11:30:20.523Z,1019.15
2022-12-27T11:31:20.516Z,1019.07
2022-12-27T11:32:20.479Z,1019.14
2022-12-27T11:33:24.743Z,1019.09
2022-12-27T11:34:20.476Z,1019.11
2022-12-27T11:35:20.481Z,1019.09
2022-12-27T11:36:20.475Z,1019.13
2022-12-27T11:37:20.449Z,1019.05
2022-12-27T11:38:20.495Z,1019.01
2022-12-27T11:39:20.466Z,1019.06
2022-12-27T11:40:20.480Z,1019.05
2022-12-27T11:41:26.102Z,1019.09
2022-12-27T11:42:20.452Z,1019.11
2022-12-27T11:45:41.165Z,1019.17
2022-12-27T11:46:05.823Z,1019.16
2022-12-27T11:47:05.901Z,1019.13
2022-12-27T11:48:05.753Z,1019.09
2022-12-27T11:49:05.954Z,1019.15
2022-12-27T11:50:05.269Z,1019.08
2022-12-27T11:51:04.886Z,1019.11
2022-12-27T11:52:05.761Z,1019.19
2022-12-27T11:54:38.343Z,1019.05
2022-12-27T11:55:38.329Z,1019.04
2022-12-27T11:57:32.581Z,1019.04
2022-12-27T11:58:32.565Z,1018.99
2022-12-27T12:00:26.560Z,1019.02
2022-12-27T12:01:26.566Z,1018.99
2022-12-27T12:03:20.515Z,1019.05
2022-12-27T12:04:20.461Z,1019.05
2022-12-27T12:06:14.620Z,1019.03
2022-12-27T12:07:14.619Z,1019.06
2022-12-27T12:09:08.874Z,1019.09
2022-12-27T12:10:08.848Z,1019.04
2022-12-27T12:12:03.220Z,1018.98
2022-12-27T12:13:03.196Z,1019.00
2022-12-27T12:14:57.288Z,1018.98
2022-12-27T12:15:57.278Z,1019.03